Time;durP1;ratioP1;P1;durP2;ratioP2;P2;SDS_P1;SDS_P2;PMS_P1;PMS_P2;Temp;Humidity;BMP_temperature;BMP_pressure;BME280_temperature;BME280_humidity;BME280_pressure;Samples;Min_cycle;Max_cycle;Signal;HPM_P1;HPM_P2
2023/04/06 00:02:09;;;;;;;13.02;9.63;;;4.60;99.90;;;;;;4986578;28;20099;-75
2023/04/06 00:05:27;;;;;;;10.23;8.63;;;4.50;99.90;;;;;;5000087;28;20115;-74
2023/04/06 00:08:07;;;;;;;10.93;8.82;;;4.50;99.90;;;;;;5003742;28;20050;-74
2023/04/06 00:10:37;;;;;;;11.52;9.43;;;4.50;99.90;;;;;;5006896;28;20116;-75
2023/04/06 00:13:06;;;;;;;10.25;9.15;;;4.60;99.90;;;;;;4998505;28;20058;-77
2023/04/06 00:15:36;;;;;;;11.83;8.97;;;4.60;99.90;;;;;;4983357;28;20057;-76
2023/04/06 00:18:07;;;;;;;11.10;9.50;;;4.70;99.90;;;;;;4993707;28;20482;-75
2023/04/06 00:20:35;;;;;;;12.18;9.82;;;4.50;99.90;;;;;;4981248;28;20074;-76
2023/04/06 00:23:03;;;;;;;12.10;9.60;;;4.60;99.90;;;;;;5001714;28;20037;-74
2023/04/06 00:25:30;;;;;;;11.35;9.35;;;4.70;99.90;;;;;;4997488;28;20061;-75
2023/04/06 00:28:01;;;;;;;11.25;9.02;;;4.60;99.90;;;;;;4981786;28;20050;-75
2023/04/06 00:30:31;;;;;;;11.07;9.43;;;4.60;99.90;;;;;;4987361;28;20038;-75
2023/04/06 00:32:58;;;;;;;11.82;9.70;;;4.60;99.90;;;;;;4993533;28;20042;-74
2023/04/06 00:35:26;;;;;;;10.50;9.27;;;4.60;99.90;;;;;;5012937;28;20537;-74
2023/04/06 00:37:54;;;;;;;12.65;9.63;;;4.70;99.90;;;;;;4994106;28;20049;-74
2023/04/06 00:40:28;;;;;;;12.82;9.25;;;4.70;99.90;;;;;;4993123;28;20053;-76
2023/04/06 00:43:01;;;;;;;11.15;9.27;;;4.60;99.90;;;;;;4984848;28;20052;-76
2023/04/06 00:45:29;;;;;;;12.43;9.77;;;4.70;99.90;;;;;;4997732;28;20038;-76
2023/04/06 00:48:00;;;;;;;10.93;9.60;;;4.60;99.90;;;;;;4994284;28;20049;-75
2023/04/06 00:50:27;;;;;;;13.10;9.88;;;4.60;99.90;;;;;;4997542;28;20042;-75
2023/04/06 00:52:55;;;;;;;11.13;9.55;;;4.60;99.90;;;;;;5023014;28;20045;-75
2023/04/06 00:55:22;;;;;;;10.18;8.55;;;4.50;99.90;;;;;;4984111;23;20099;-75
2023/04/06 00:57:50;;;;;;;11.57;9.70;;;4.50;99.90;;;;;;4994301;28;20050;-75
2023/04/06 01:00:21;;;;;;;11.70;8.82;;;4.60;99.90;;;;;;4977792;28;20108;-73
2023/04/06 01:02:50;;;;;;;10.25;9.13;;;4.50;99.90;;;;;;4986812;28;20046;-76
2023/04/06 01:05:18;;;;;;;11.27;9.18;;;4.50;99.90;;;;;;4991026;28;20038;-75
2023/04/06 01:07:45;;;;;;;11.18;8.95;;;4.40;99.90;;;;;;4991673;28;20081;-75
2023/04/06 01:10:31;;;;;;;10.63;8.55;;;4.30;99.90;;;;;;4978031;28;20398;-74
2023/04/06 01:13:12;;;;;;;13.65;10.13;;;4.30;99.90;;;;;;4996676;28;20492;-75
2023/04/06 01:15:45;;;;;;;14.70;9.55;;;4.40;99.90;;;;;;4984498;28;20048;-73
2023/04/06 01:18:12;;;;;;;12.07;9.77;;;4.40;99.90;;;;;;4995581;28;20045;-74
2023/04/06 01:20:41;;;;;;;13.38;10.00;;;4.50;99.90;;;;;;4967461;28;20050;-75
2023/04/06 01:23:08;;;;;;;12.75;9.88;;;4.40;99.90;;;;;;4988161;28;20383;-76
2023/04/06 01:25:40;;;;;;;13.52;9.50;;;4.30;99.90;;;;;;4974128;28;20141;-77
2023/04/06 01:28:09;;;;;;;10.68;8.93;;;4.40;99.90;;;;;;4993152;28;20057;-76
2023/04/06 01:30:36;;;;;;;12.00;9.00;;;4.40;99.90;;;;;;5009003;28;20046;-76
2023/04/06 01:33:04;;;;;;;11.55;9.38;;;4.50;99.90;;;;;;4981718;28;20442;-73
2023/04/06 01:35:32;;;;;;;10.30;8.98;;;4.60;99.90;;;;;;4993224;28;20038;-73
2023/04/06 01:38:06;;;;;;;12.25;9.00;;;4.50;99.90;;;;;;4977739;28;20429;-75
2023/04/06 01:40:37;;;;;;;12.95;9.82;;;4.50;99.90;;;;;;4993404;28;20049;-75
2023/04/06 01:43:05;;;;;;;;;;;4.50;99.90;;;;;;4990745;28;20471;-75
2023/04/06 01:45:32;;;;;;;10.57;9.00;;;4.40;99.90;;;;;;5006770;28;19921;-75
2023/04/06 01:48:11;;;;;;;12.50;9.55;;;4.50;99.90;;;;;;5010825;28;20125;-75
2023/04/06 01:50:39;;;;;;;9.80;8.68;;;4.50;99.90;;;;;;4979558;28;20050;-76
2023/04/06 01:53:09;;;;;;;11.50;9.55;;;4.50;99.90;;;;;;4988032;28;20681;-75
2023/04/06 01:55:55;;;;;;;12.55;8.82;;;4.50;99.90;;;;;;4963346;28;20138;-75
2023/04/06 01:58:22;;;;;;;10.83;9.17;;;4.50;99.90;;;;;;4955404;28;20054;-75
2023/04/06 02:00:50;;;;;;;11.13;9.07;;;4.60;99.90;;;;;;4992477;28;20513;-74
2023/04/06 02:03:21;;;;;;;9.85;8.63;;;4.50;99.90;;;;;;4953170;28;20495;-74
2023/04/06 02:05:48;;;;;;;12.85;9.07;;;4.60;99.90;;;;;;4966169;28;20612;-75
2023/04/06 02:08:16;;;;;;;11.85;9.25;;;4.50;99.90;;;;;;4964241;28;20062;-75
2023/04/06 02:10:45;;;;;;;11.38;9.35;;;4.50;99.90;;;;;;4953118;28;20039;-74
2023/04/06 02:13:13;;;;;;;11.98;9.32;;;4.40;99.90;;;;;;4986682;28;20047;-75
2023/04/06 02:15:41;;;;;;;11.32;9.07;;;4.50;99.90;;;;;;4963997;28;20457;-75
2023/04/06 02:18:10;;;;;;;12.55;9.30;;;4.40;99.90;;;;;;4954785;28;20057;-75
2023/04/06 02:20:40;;;;;;;10.85;9.00;;;4.40;99.90;;;;;;4953575;28;20153;-74
2023/04/06 02:23:07;;;;;;;12.52;9.50;;;4.50;99.90;;;;;;4971931;28;20050;-75
2023/04/06 02:25:35;;;;;;;10.20;8.65;;;4.40;99.90;;;;;;4957948;28;20045;-73
2023/04/06 02:28:03;;;;;;;12.52;9.05;;;4.40;99.90;;;;;;4987381;28;20059;-74
2023/04/06 02:30:35;;;;;;;11.88;9.60;;;4.40;99.90;;;;;;4973583;28;20042;-74
2023/04/06 02:33:03;;;;;;;12.27;9.57;;;4.40;99.90;;;;;;4961269;28;20439;-74
2023/04/06 02:35:31;;;;;;;13.02;9.63;;;4.40;99.90;;;;;;4958963;28;20050;-74
2023/04/06 02:38:22;;;;;;;11.15;9.43;;;4.40;99.90;;;;;;4960093;28;20534;-73
2023/04/06 02:40:53;;;;;;;11.15;9.68;;;4.50;99.90;;;;;;4957527;28;20101;-75
2023/04/06 02:43:21;;;;;;;11.98;9.82;;;4.40;99.90;;;;;;4952271;28;20046;-74
2023/04/06 02:45:48;;;;;;;12.13;9.23;;;4.50;99.90;;;;;;4956228;28;20066;-73
2023/04/06 02:48:17;;;;;;;11.80;10.10;;;4.40;99.90;;;;;;4949120;28;20128;-75
2023/04/06 02:50:44;;;;;;;10.82;9.30;;;4.40;99.90;;;;;;4955898;28;20121;-75
2023/04/06 02:53:11;;;;;;;15.50;10.50;;;4.30;99.90;;;;;;4974569;28;20126;-74
2023/04/06 02:55:41;;;;;;;12.75;10.75;;;4.20;99.90;;;;;;4988002;28;20051;-75
2023/04/06 02:58:20;;;;;;;15.25;10.48;;;4.30;99.90;;;;;;4958290;28;20058;-74
2023/04/06 03:00:47;;;;;;;11.60;10.38;;;4.20;99.90;;;;;;4949518;28;20046;-75
2023/04/06 03:03:14;;;;;;;13.20;10.10;;;4.20;99.90;;;;;;4977240;28;20051;-76
2023/04/06 03:05:42;;;;;;;12.57;10.15;;;4.20;99.90;;;;;;4958752;28;20050;-73
2023/04/06 03:08:09;;;;;;;14.75;11.05;;;4.30;99.90;;;;;;4977478;28;20057;-73
2023/04/06 03:10:37;;;;;;;13.95;10.20;;;4.20;99.90;;;;;;4974547;28;20459;-74
2023/04/06 03:13:04;;;;;;;15.02;10.20;;;4.20;99.90;;;;;;4971061;28;20657;-75
2023/04/06 03:15:31;;;;;;;12.25;9.70;;;4.20;99.90;;;;;;4975733;28;20050;-75
2023/04/06 03:18:05;;;;;;;12.90;10.02;;;4.20;99.90;;;;;;4973902;28;20078;-73
2023/04/06 03:20:32;;;;;;;12.40;10.20;;;4.30;99.90;;;;;;4960117;28;20046;-75
2023/04/06 03:23:00;;;;;;;12.88;10.32;;;4.30;99.90;;;;;;4971290;28;20055;-75
2023/04/06 03:25:27;;;;;;;12.90;10.40;;;4.20;99.90;;;;;;4975244;28;20050;-75
2023/04/06 03:28:00;;;;;;;16.38;10.30;;;4.20;99.90;;;;;;4969074;28;20049;-75
2023/04/06 03:30:27;;;;;;;13.63;10.48;;;4.20;99.90;;;;;;4953547;28;20066;-74
2023/04/06 03:32:59;;;;;;;15.13;10.70;;;4.20;99.90;;;;;;4973049;28;20133;-75
2023/04/06 03:35:27;;;;;;;12.38;10.20;;;4.20;99.90;;;;;;4955232;28;20054;-75
2023/04/06 03:37:55;;;;;;;12.88;10.00;;;4.20;99.90;;;;;;4945774;28;20053;-74
2023/04/06 03:40:26;;;;;;;11.02;9.70;;;4.20;99.90;;;;;;4974998;28;20486;-75
2023/04/06 03:42:57;;;;;;;14.45;10.38;;;4.20;99.90;;;;;;4947409;28;20046;-75
2023/04/06 03:45:28;;;;;;;14.15;10.20;;;4.30;99.90;;;;;;4956777;28;20053;-76
2023/04/06 03:47:55;;;;;;;10.57;9.45;;;4.30;99.90;;;;;;4959268;28;20066;-74
2023/04/06 03:50:23;;;;;;;15.13;10.13;;;4.30;99.90;;;;;;4958768;28;20078;-75
2023/04/06 03:52:50;;;;;;;12.80;10.25;;;4.30;99.90;;;;;;4979248;28;20089;-74
2023/04/06 03:55:25;;;;;;;15.15;9.10;;;4.30;99.90;;;;;;4977773;28;20051;-75
2023/04/06 03:57:56;;;;;;;12.55;10.07;;;4.20;99.90;;;;;;4956507;28;20047;-75
2023/04/06 04:00:24;;;;;;;12.00;10.20;;;4.30;99.90;;;;;;4956132;28;20043;-75
2023/04/06 04:02:51;;;;;;;12.35;9.80;;;4.30;99.90;;;;;;4970066;28;20034;-76
2023/04/06 04:05:24;;;;;;;12.77;10.65;;;4.30;99.90;;;;;;4959682;28;20042;-75
2023/04/06 04:07:52;;;;;;;12.48;9.73;;;4.30;99.90;;;;;;4955338;28;20053;-75
2023/04/06 04:10:20;;;;;;;12.30;9.35;;;4.30;99.90;;;;;;4978660;23;20046;-77
2023/04/06 04:12:47;;;;;;;15.02;9.98;;;4.30;99.90;;;;;;4973972;28;20441;-74
2023/04/06 04:15:17;;;;;;;11.60;9.52;;;4.40;99.90;;;;;;4956520;28;20046;-74
2023/04/06 04:17:46;;;;;;;11.80;9.18;;;4.30;99.90;;;;;;4972654;28;20053;-74
2023/04/06 04:20:17;;;;;;;13.45;9.95;;;4.30;99.90;;;;;;4947475;28;20050;-73
2023/04/06 04:22:54;;;;;;;11.30;9.20;;;4.40;99.90;;;;;;4945670;28;20133;-74
2023/04/06 04:25:22;;;;;;;11.85;9.95;;;4.30;99.90;;;;;;4940567;28;20059;-75
2023/04/06 04:27:53;;;;;;;14.30;9.68;;;4.30;99.90;;;;;;4953497;28;20042;-75
2023/04/06 04:30:25;;;;;;;11.85;9.60;;;4.30;99.90;;;;;;4982108;28;20133;-76
2023/04/06 04:33:30;;;;;;;;;;;4.30;99.90;;;;;;4953585;28;20050;-76
2023/04/06 04:36:24;;;;;;;14.02;9.65;;;4.30;99.90;;;;;;4948877;28;19926;-77
2023/04/06 04:38:52;;;;;;;13.10;9.80;;;4.50;99.90;;;;;;4974973;28;20120;-75
2023/04/06 04:41:19;;;;;;;12.00;10.02;;;4.50;99.90;;;;;;4992195;28;20069;-76
2023/04/06 04:43:47;;;;;;;12.35;10.45;;;4.50;99.90;;;;;;4991787;28;20069;-75
2023/04/06 04:46:14;;;;;;;13.43;10.70;;;4.60;99.90;;;;;;4991485;28;20042;-72
2023/04/06 04:49:02;;;;;;;15.38;10.45;;;4.50;99.90;;;;;;4977976;28;20053;-75
2023/04/06 04:51:33;;;;;;;13.48;10.02;;;4.50;99.90;;;;;;4957903;28;20050;-74
2023/04/06 04:54:01;;;;;;;16.38;11.70;;;4.50;99.90;;;;;;4974273;28;20545;-76
2023/04/06 04:56:29;;;;;;;15.07;9.68;;;4.60;99.90;;;;;;4974307;28;20038;-76
2023/04/06 04:58:57;;;;;;;15.27;10.98;;;4.60;99.90;;;;;;4991341;28;20101;-76
2023/04/06 05:01:24;;;;;;;38.40;24.48;;;4.50;99.90;;;;;;4974047;28;20046;-74
2023/04/06 05:03:57;;;;;;;73.57;41.42;;;4.60;99.90;;;;;;4959051;28;20081;-76
2023/04/06 05:06:37;;;;;;;23.27;15.07;;;4.80;99.90;;;;;;4958600;28;20105;-75
2023/04/06 05:09:19;;;;;;;20.08;10.98;;;4.90;99.90;;;;;;4945853;28;20063;-77
2023/04/06 05:11:46;;;;;;;13.00;10.60;;;4.90;99.90;;;;;;4973086;28;20116;-74
2023/04/06 05:14:14;;;;;;;13.90;10.77;;;4.70;99.90;;;;;;5001978;23;20038;-75
2023/04/06 05:16:45;;;;;;;13.68;9.80;;;4.70;99.90;;;;;;5014535;28;20114;-73
2023/04/06 05:19:18;;;;;;;12.50;9.82;;;4.90;99.90;;;;;;5050951;28;20322;-77
2023/04/06 05:21:48;;;;;;;12.27;9.38;;;5.00;99.90;;;;;;5001748;28;20106;-76
2023/04/06 05:24:21;;;;;;;16.13;10.40;;;4.90;99.90;;;;;;5016404;28;20049;-77
2023/04/06 05:26:51;;;;;;;17.27;12.15;;;4.70;99.90;;;;;;5019053;28;20037;-76
2023/04/06 05:29:25;;;;;;;32.28;18.92;;;4.60;99.90;;;;;;5019032;28;20041;-74
2023/04/06 05:31:54;;;;;;;45.90;25.63;;;4.80;99.90;;;;;;4992545;28;20054;-74
2023/04/06 05:34:28;;;;;;;44.72;26.27;;;4.90;99.90;;;;;;5005699;28;20553;-75
2023/04/06 05:37:10;;;;;;;54.42;31.77;;;4.80;99.90;;;;;;4999322;28;20049;-73
2023/04/06 05:39:43;;;;;;;19.23;12.65;;;4.80;99.90;;;;;;5016908;28;20128;-76
2023/04/06 05:42:16;;;;;;;17.10;10.90;;;4.70;99.90;;;;;;4998547;28;20057;-76
2023/04/06 05:44:46;;;;;;;17.83;9.52;;;4.50;99.90;;;;;;5016700;28;20044;-76
2023/04/06 05:47:13;;;;;;;15.07;10.77;;;4.70;99.90;;;;;;4999246;28;20111;-74
2023/04/06 05:49:49;;;;;;;13.15;9.93;;;4.70;99.90;;;;;;5007881;28;20042;-70
2023/04/06 05:52:20;;;;;;;12.18;9.75;;;4.80;99.90;;;;;;5016309;28;20092;-75
2023/04/06 05:54:47;;;;;;;;;;;5.00;99.90;;;;;;4992539;28;20050;-71
2023/04/06 05:57:23;;;;;;;13.20;10.13;;;4.70;99.90;;;;;;4986822;28;20280;-74
2023/04/06 05:59:50;;;;;;;20.15;13.25;;;4.70;99.90;;;;;;4999294;28;20068;-76
2023/04/06 06:02:18;;;;;;;24.13;16.40;;;4.80;99.90;;;;;;5015065;28;20048;-77
2023/04/06 06:04:45;;;;;;;15.00;11.63;;;4.90;99.90;;;;;;5008945;28;20029;-73
2023/04/06 06:07:20;;;;;;;15.57;11.40;;;4.90;99.90;;;;;;4989846;28;20429;-77
2023/04/06 06:09:51;;;;;;;13.38;9.98;;;4.90;99.90;;;;;;4992069;28;20056;-71
2023/04/06 06:12:26;;;;;;;16.17;11.10;;;4.80;99.90;;;;;;4988430;28;20069;-71
2023/04/06 06:14:56;;;;;;;13.50;10.65;;;5.00;99.90;;;;;;4990524;28;20057;-77
2023/04/06 06:17:31;;;;;;;14.13;11.40;;;4.80;99.90;;;;;;4999816;28;20081;-71
2023/04/06 06:20:08;;;;;;;17.85;12.27;;;4.70;99.90;;;;;;4987285;28;20045;-78
2023/04/06 06:22:36;;;;;;;18.13;11.85;;;4.80;99.90;;;;;;5031067;28;20041;-77
2023/04/06 06:25:03;;;;;;;19.67;12.77;;;5.00;99.90;;;;;;5017557;28;20100;-74
2023/04/06 06:27:39;;;;;;;16.00;11.95;;;5.00;99.90;;;;;;4991909;28;20673;-72
2023/04/06 06:30:07;;;;;;;18.27;12.20;;;4.90;99.90;;;;;;5000208;28;20131;-75
2023/04/06 06:32:35;;;;;;;18.95;13.57;;;4.70;99.90;;;;;;5034598;28;20049;-72
2023/04/06 06:35:02;;;;;;;21.08;13.88;;;4.70;99.90;;;;;;5000293;28;20049;-78
2023/04/06 06:37:32;;;;;;;17.63;12.50;;;4.70;99.90;;;;;;5000393;28;20042;-71
2023/04/06 06:40:07;;;;;;;21.55;13.75;;;4.70;99.90;;;;;;5009941;28;20049;-71
2023/04/06 06:42:35;;;;;;;20.55;14.38;;;4.60;99.90;;;;;;5030008;28;20042;-77
2023/04/06 06:45:02;;;;;;;17.33;12.13;;;4.90;99.90;;;;;;5031758;28;20046;-73
2023/04/06 06:47:30;;;;;;;16.50;13.18;;;4.90;99.90;;;;;;5028287;28;20089;-70
2023/04/06 06:49:58;;;;;;;19.23;13.70;;;4.90;99.90;;;;;;4993364;28;20041;-74
2023/04/06 06:52:30;;;;;;;20.95;13.80;;;4.90;99.90;;;;;;5029001;28;20038;-72
2023/04/06 06:54:59;;;;;;;22.73;13.27;;;5.10;99.90;;;;;;4997342;28;20046;-78
2023/04/06 06:57:27;;;;;;;22.27;13.75;;;5.00;99.90;;;;;;5033855;28;20036;-75
2023/04/06 07:00:00;;;;;;;17.10;12.30;;;5.40;99.90;;;;;;5035870;28;20053;-77
2023/04/06 07:02:29;;;;;;;18.75;13.43;;;5.90;99.90;;;;;;4996385;28;20042;-72
2023/04/06 07:05:05;;;;;;;17.23;12.90;;;6.00;99.90;;;;;;4996243;28;20041;-75
2023/04/06 07:07:56;;;;;;;21.38;12.90;;;6.20;99.90;;;;;;4994608;28;20045;-73
2023/04/06 07:10:26;;;;;;;19.83;12.60;;;6.50;99.90;;;;;;4992913;28;20146;-74
2023/04/06 07:12:53;;;;;;;16.88;11.38;;;6.60;99.90;;;;;;4997215;28;20049;-77
2023/04/06 07:15:37;;;;;;;16.90;12.02;;;6.40;98.70;;;;;;5006722;28;20390;-75
2023/04/06 07:18:12;;;;;;;15.88;11.45;;;6.30;98.10;;;;;;4998339;28;20041;-77
2023/04/06 07:20:39;;;;;;;;;;;6.10;98.20;;;;;;5009480;28;20049;-78
2023/04/06 07:23:07;;;;;;;18.88;11.35;;;6.00;98.00;;;;;;5000560;28;19921;-74
2023/04/06 07:25:35;;;;;;;22.88;12.80;;;6.20;98.20;;;;;;5017561;28;20045;-77
2023/04/06 07:28:10;;;;;;;14.05;11.18;;;6.60;97.60;;;;;;4991992;28;20049;-79
2023/04/06 07:30:41;;;;;;;15.15;10.75;;;6.50;97.40;;;;;;4998560;28;20065;-73
2023/04/06 07:33:08;;;;;;;14.68;11.45;;;6.40;97.00;;;;;;5000570;28;20168;-73
2023/04/06 07:35:48;;;;;;;14.70;11.57;;;5.90;97.50;;;;;;5030519;28;20048;-71
2023/04/06 07:38:19;;;;;;;13.85;10.85;;;6.10;97.60;;;;;;4999871;28;20625;-78
2023/04/06 07:40:46;;;;;;;15.45;11.15;;;6.20;96.50;;;;;;4999766;28;20057;-80
2023/04/06 07:43:13;;;;;;;13.52;10.45;;;5.90;96.60;;;;;;5004269;28;20037;-76
2023/04/06 07:45:41;;;;;;;13.32;10.07;;;6.00;96.80;;;;;;5004190;28;20053;-77
2023/04/06 07:48:18;;;;;;;15.45;11.02;;;6.10;96.10;;;;;;4998839;28;20046;-72
2023/04/06 07:50:46;;;;;;;13.88;9.98;;;6.50;95.20;;;;;;5001791;28;20489;-75
2023/04/06 07:53:19;;;;;;;15.85;10.98;;;6.40;94.90;;;;;;4997659;28;20042;-78
2023/04/06 07:55:56;;;;;;;17.10;10.75;;;6.70;95.00;;;;;;4994892;28;20114;-74
2023/04/06 07:58:23;;;;;;;15.88;11.20;;;6.80;94.00;;;;;;4992094;28;20132;-78
2023/04/06 08:01:00;;;;;;;11.93;9.63;;;7.00;93.20;;;;;;5026601;28;20040;-70
2023/04/06 08:03:33;;;;;;;;;;;7.20;92.90;;;;;;4997268;28;20052;-76
2023/04/06 08:06:02;;;;;;;14.52;9.50;;;7.40;92.30;;;;;;4995728;28;19921;-72
2023/04/06 08:08:43;;;;;;;14.95;11.20;;;7.60;92.10;;;;;;5002948;28;20389;-74
2023/04/06 08:11:11;;;;;;;12.48;9.95;;;7.80;91.90;;;;;;5030807;28;20501;-74
2023/04/06 08:13:45;;;;;;;13.05;10.98;;;7.80;92.70;;;;;;4995235;28;20088;-70
2023/04/06 08:16:15;;;;;;;18.83;12.13;;;7.50;93.20;;;;;;4990464;28;20053;-73
2023/04/06 08:18:47;;;;;;;14.20;11.10;;;7.50;93.40;;;;;;5006305;28;20045;-72
2023/04/06 08:21:17;;;;;;;17.85;12.05;;;7.70;93.10;;;;;;4990508;28;20045;-75
2023/04/06 08:23:50;;;;;;;15.77;11.57;;;7.70;92.50;;;;;;5029665;28;20400;-72
2023/04/06 08:26:21;;;;;;;14.48;11.20;;;7.70;92.10;;;;;;5012238;28;20359;-79
2023/04/06 08:28:51;;;;;;;20.75;11.88;;;7.70;91.70;;;;;;5005508;23;20501;-78
2023/04/06 08:31:23;;;;;;;15.75;11.65;;;7.30;92.00;;;;;;4992578;28;20046;-73
2023/04/06 08:33:52;;;;;;;19.60;11.25;;;7.40;92.10;;;;;;4987861;28;20497;-72
2023/04/06 08:36:42;;;;;;;;;;;;;;;;;;;;;
2023/04/06 08:39:25;;;;;;;;;;;8.10;92.40;;;;;;4988908;28;20051;-74
2023/04/06 08:41:57;;;;;;;14.48;10.70;;;7.90;92.80;;;;;;5018739;28;20360;-79
2023/04/06 08:44:38;;;;;;;14.50;10.30;;;8.20;92.20;;;;;;4967802;28;20045;-75
2023/04/06 08:47:10;;;;;;;14.02;10.02;;;7.80;92.00;;;;;;4964043;28;20609;-75
2023/04/06 08:49:38;;;;;;;14.70;10.02;;;7.70;91.40;;;;;;4972398;28;20038;-73
2023/04/06 08:52:07;;;;;;;14.63;9.73;;;7.50;90.00;;;;;;4963788;28;20525;-73
2023/04/06 08:54:35;;;;;;;15.95;8.70;;;7.40;90.40;;;;;;4984505;28;20037;-73
2023/04/06 08:57:04;;;;;;;13.00;8.60;;;7.40;90.40;;;;;;4996372;28;20049;-72
2023/04/06 08:59:32;;;;;;;10.88;8.93;;;7.40;88.80;;;;;;4992219;28;20054;-72
2023/04/06 09:02:06;;;;;;;12.85;8.73;;;7.60;88.20;;;;;;4999670;28;20042;-71
2023/04/06 09:04:35;;;;;;;13.40;8.20;;;7.70;87.20;;;;;;4981671;28;20145;-72
2023/04/06 09:07:13;;;;;;;11.40;9.40;;;7.70;86.60;;;;;;4991363;28;20093;-73
2023/04/06 09:09:47;;;;;;;11.02;8.30;;;8.10;85.70;;;;;;4993821;28;20042;-74
2023/04/06 09:15:21;;;;;;;12.85;8.73;;;8.30;84.90;;;;;;4899364;29;20083;-73
2023/04/06 09:17:53;;;;;;;12.00;8.65;;;8.00;85.30;;;;;;4892210;29;20123;-71
2023/04/06 09:20:26;;;;;;;11.75;8.02;;;7.80;85.80;;;;;;4882024;29;20146;-73
2023/04/06 09:22:55;;;;;;;14.88;9.48;;;8.10;87.00;;;;;;4898884;29;20120;-72
2023/04/06 09:25:26;;;;;;;37.15;20.25;;;8.20;88.40;;;;;;4883159;29;20056;-70
2023/04/06 09:28:04;;;;;;;15.73;10.95;;;9.50;90.90;;;;;;4878107;29;20058;-76
2023/04/06 09:30:31;;;;;;;12.05;8.63;;;9.80;81.60;;;;;;4922647;29;20095;-76
2023/04/06 09:32:59;;;;;;;12.93;8.95;;;8.40;84.20;;;;;;4932537;29;20043;-74
2023/04/06 09:35:29;;;;;;;19.60;9.18;;;7.90;84.60;;;;;;4915480;29;20142;-76
2023/04/06 09:38:10;;;;;;;11.60;9.20;;;7.60;86.90;;;;;;4913593;29;20048;-74
2023/04/06 09:40:48;;;;;;;15.75;9.02;;;7.90;86.00;;;;;;4894181;29;20051;-72
2023/04/06 09:43:27;;;;;;;11.52;7.82;;;7.70;85.30;;;;;;4915378;29;20059;-74
2023/04/06 09:46:00;;;;;;;14.45;9.07;;;7.90;85.00;;;;;;4938922;29;20032;-71
2023/04/06 09:48:30;;;;;;;10.55;8.52;;;8.60;84.90;;;;;;4919311;29;20052;-75
2023/04/06 09:51:03;;;;;;;11.25;8.63;;;9.10;82.40;;;;;;4932611;29;20051;-74
2023/04/06 09:53:44;;;;;;;11.18;8.20;;;9.30;81.50;;;;;;4921389;29;20040;-72
2023/04/06 09:56:22;;;;;;;13.18;8.75;;;9.60;80.00;;;;;;4915068;29;20044;-75
2023/04/06 09:59:03;;;;;;;10.80;8.25;;;9.10;82.30;;;;;;4904402;29;20452;-74
2023/04/06 10:01:33;;;;;;;11.10;8.30;;;8.80;81.80;;;;;;4905082;29;20368;-75
2023/04/06 10:04:24;;;;;;;11.50;8.20;;;8.90;81.90;;;;;;4901526;29;20068;-77
2023/04/06 10:06:55;;;;;;;12.70;8.07;;;8.90;80.20;;;;;;4895002;29;20056;-78
2023/04/06 10:09:28;;;;;;;9.85;8.15;;;8.00;82.80;;;;;;4918005;29;20481;-78
2023/04/06 10:11:55;;;;;;;10.38;8.13;;;8.00;83.30;;;;;;4992015;23;20069;-73
2023/04/06 10:14:23;;;;;;;10.90;8.48;;;8.20;81.90;;;;;;4979649;28;20145;-75
2023/04/06 10:16:53;;;;;;;12.20;8.30;;;8.60;80.40;;;;;;4978162;28;20046;-74
2023/04/06 10:19:28;;;;;;;10.53;8.07;;;8.30;82.30;;;;;;4985994;28;20082;-74
2023/04/06 10:22:02;;;;;;;12.48;8.18;;;8.70;81.50;;;;;;4998818;28;20289;-79
2023/04/06 10:24:35;;;;;;;11.13;8.32;;;9.30;79.70;;;;;;4993044;28;20042;-75
2023/04/06 10:27:06;;;;;;;12.25;8.68;;;9.50;79.90;;;;;;4983493;28;20050;-77
2023/04/06 10:29:48;;;;;;;;;;;10.00;78.00;;;;;;4981416;28;20088;-79
2023/04/06 10:32:15;;;;;;;13.18;8.70;;;10.20;77.50;;;;;;4981623;28;19929;-77
2023/04/06 10:34:43;;;;;;;13.35;8.48;;;10.30;77.30;;;;;;4973302;28;20057;-75
2023/04/06 10:37:14;;;;;;;16.60;8.43;;;9.90;76.00;;;;;;4978044;28;20057;-75
2023/04/06 10:39:59;;;;;;;;;;;9.60;77.70;;;;;;4990342;28;20101;-76
2023/04/06 10:42:37;;;;;;;12.27;8.20;;;9.10;78.60;;;;;;4974493;28;19988;-77
2023/04/06 10:45:18;;;;;;;12.95;8.73;;;8.00;82.00;;;;;;5003307;28;20398;-75
2023/04/06 10:47:45;;;;;;;14.65;8.10;;;8.40;82.30;;;;;;4975056;28;20122;-80
2023/04/06 10:50:20;;;;;;;12.27;8.98;;;8.40;81.40;;;;;;5001495;28;20053;-76
2023/04/06 10:53:04;;;;;;;11.00;8.85;;;8.40;81.70;;;;;;4967266;28;20460;-76
2023/04/06 10:55:34;;;;;;;12.30;8.75;;;8.20;81.60;;;;;;4966359;28;20427;-79
2023/04/06 10:58:09;;;;;;;14.43;9.50;;;8.00;82.30;;;;;;4988778;28;20460;-81
2023/04/06 11:00:45;;;;;;;12.63;8.88;;;7.70;84.20;;;;;;4975476;28;20141;-78
2023/04/06 11:03:18;;;;;;;12.43;8.43;;;8.00;83.20;;;;;;4984097;28;20038;-80
2023/04/06 11:05:54;;;;;;;11.57;8.80;;;7.50;85.00;;;;;;5009310;28;20402;-76
2023/04/06 11:08:32;;;;;;;15.40;9.32;;;7.70;84.40;;;;;;4971865;28;20133;-79
2023/04/06 11:11:18;;;;;;;;;;;8.20;85.10;;;;;;5010665;28;20057;-75
2023/04/06 11:13:52;;;;;;;12.02;9.48;;;8.40;84.30;;;;;;4978688;28;19921;-77
2023/04/06 11:16:21;;;;;;;12.73;8.90;;;7.90;84.80;;;;;;4994360;28;20045;-73
2023/04/06 11:18:56;;;;;;;11.30;9.30;;;7.80;84.90;;;;;;4971858;28;20497;-76
2023/04/06 11:21:50;;;;;;;11.88;8.77;;;7.80;84.70;;;;;;4974286;28;20046;-78
2023/04/06 11:24:23;;;;;;;11.32;7.65;;;7.90;84.50;;;;;;4972999;28;20049;-78
2023/04/06 11:26:54;;;;;;;11.77;8.18;;;8.00;83.00;;;;;;4973666;28;20058;-79
2023/04/06 11:29:31;;;;;;;15.18;8.55;;;7.70;83.70;;;;;;5005236;28;20409;-75
2023/04/06 11:32:08;;;;;;;11.95;8.07;;;7.70;83.40;;;;;;4968345;28;20619;-76
2023/04/06 11:34:40;;;;;;;10.77;7.75;;;7.80;81.90;;;;;;4980021;28;20034;-74
2023/04/06 11:37:11;;;;;;;20.63;8.23;;;7.90;81.40;;;;;;4964591;28;20061;-79
2023/04/06 11:39:40;;;;;;;12.10;8.15;;;8.10;81.50;;;;;;4974290;28;20049;-80
2023/04/06 11:42:07;;;;;;;9.18;7.22;;;8.00;82.80;;;;;;4996237;28;20045;-78
2023/04/06 11:44:59;;;;;;;11.68;7.72;;;8.10;82.00;;;;;;4981813;28;20050;-76
2023/04/06 11:47:30;;;;;;;10.80;8.00;;;8.60;80.20;;;;;;4993829;28;20490;-75
2023/04/06 11:50:07;;;;;;;10.80;8.05;;;8.50;80.60;;;;;;4980119;28;20046;-77
2023/04/06 11:52:39;;;;;;;10.30;7.60;;;8.40;79.00;;;;;;4976514;28;20046;-76
2023/04/06 11:55:18;;;;;;;11.80;7.75;;;8.20;81.50;;;;;;4975783;28;20046;-74
2023/04/06 11:58:04;;;;;;;10.73;6.93;;;8.10;79.60;;;;;;5014593;28;20057;-79
2023/04/06 12:00:34;;;;;;;11.73;8.05;;;8.10;79.00;;;;;;4998770;28;20043;-76
2023/04/06 12:03:04;;;;;;;11.82;7.63;;;8.10;80.30;;;;;;4965056;28;20062;-75
2023/04/06 12:05:35;;;;;;;10.38;6.72;;;8.40;80.50;;;;;;4966189;28;20046;-80
2023/04/06 12:08:03;;;;;;;9.45;7.25;;;8.10;78.40;;;;;;4978100;28;20042;-76
2023/04/06 12:10:30;;;;;;;8.20;6.80;;;8.40;78.10;;;;;;4979814;28;20132;-77
2023/04/06 12:13:15;;;;;;;10.50;7.80;;;8.60;76.80;;;;;;5013031;28;20037;-79
2023/04/06 12:16:00;;;;;;;9.25;7.47;;;9.00;75.70;;;;;;4987578;28;20437;-77
2023/04/06 12:18:27;;;;;;;10.93;7.10;;;9.70;73.80;;;;;;4963659;28;20044;-79
2023/04/06 12:20:55;;;;;;;9.27;6.40;;;10.10;74.00;;;;;;4994247;28;20070;-77
2023/04/06 12:23:23;;;;;;;11.70;7.07;;;11.20;71.10;;;;;;4981037;28;20046;-78
2023/04/06 12:25:51;;;;;;;11.02;6.78;;;11.20;70.70;;;;;;4996088;28;20042;-79
2023/04/06 12:28:20;;;;;;;12.13;7.10;;;11.10;70.70;;;;;;4969987;28;20049;-78
2023/04/06 12:30:50;;;;;;;9.82;6.68;;;10.90;69.60;;;;;;4980511;28;20383;-78
2023/04/06 12:33:30;;;;;;;9.90;6.63;;;12.30;68.20;;;;;;4967504;28;20073;-78
2023/04/06 12:36:24;;;;;;;8.57;6.43;;;12.40;66.80;;;;;;4979279;28;20292;-78
2023/04/06 12:39:03;;;;;;;8.48;5.78;;;12.00;66.50;;;;;;4971790;28;20038;-77
2023/04/06 12:41:40;;;;;;;10.55;6.43;;;11.70;66.60;;;;;;4972802;28;20045;-76
2023/04/06 12:44:12;;;;;;;9.27;6.10;;;11.50;66.60;;;;;;4974375;28;20133;-77
2023/04/06 12:46:43;;;;;;;8.48;6.15;;;11.40;68.10;;;;;;5009442;28;20049;-76
2023/04/06 12:49:10;;;;;;;11.45;6.60;;;11.50;68.40;;;;;;4993686;28;20045;-77
2023/04/06 12:51:38;;;;;;;9.27;6.60;;;11.80;68.90;;;;;;4978337;28;20116;-77
2023/04/06 12:54:06;;;;;;;9.15;7.10;;;12.00;68.10;;;;;;5008857;28;20045;-78
2023/04/06 12:56:49;;;;;;;8.90;6.45;;;12.00;67.60;;;;;;4963958;28;20060;-78
2023/04/06 12:59:24;;;;;;;8.75;6.43;;;12.10;66.30;;;;;;4970846;28;20049;-79
2023/04/06 13:01:52;;;;;;;10.75;6.97;;;12.50;65.40;;;;;;5014366;28;20549;-77
2023/04/06 13:04:20;;;;;;;10.15;6.50;;;13.90;63.00;;;;;;4979492;28;20046;-76
2023/04/06 13:06:47;;;;;;;9.38;5.78;;;17.10;56.40;;;;;;5007218;28;20062;-77
2023/04/06 13:09:14;;;;;;;8.85;6.13;;;16.20;55.50;;;;;;4994818;28;20040;-80
2023/04/06 13:11:45;;;;;;;9.57;6.22;;;14.60;57.10;;;;;;5012005;28;20054;-77
2023/04/06 13:14:14;;;;;;;9.85;6.22;;;12.70;60.80;;;;;;4971209;28;20046;-78
2023/04/06 13:16:42;;;;;;;10.65;5.78;;;12.60;61.70;;;;;;4962438;28;20072;-77